createdAt,value
2023-03-07T00:00:40.476Z,13.6
2023-03-07T00:05:47.213Z,13.6
2023-03-07T00:10:53.929Z,13.6
2023-03-07T00:16:00.706Z,13.6
2023-03-07T00:21:07.382Z,13.6
2023-03-07T00:26:14.120Z,13.6
2023-03-07T00:31:20.989Z,13.6
2023-03-07T00:36:27.588Z,13.6
2023-03-07T00:41:34.338Z,13.6
2023-03-07T00:46:41.089Z,13.6
2023-03-07T00:51:47.794Z,13.6
2023-03-07T00:56:54.554Z,13.6
2023-03-07T01:02:01.304Z,13.6
2023-03-07T01:07:08.010Z,13.6
2023-03-07T01:12:15.961Z,13.6
2023-03-07T01:17:22.730Z,13.6
2023-03-07T01:22:29.435Z,13.6
2023-03-07T01:27:36.183Z,13.6
2023-03-07T01:32:42.943Z,13.6
2023-03-07T01:37:49.630Z,13.6
2023-03-07T01:42:56.339Z,13.6
2023-03-07T01:48:03.240Z,13.6
2023-03-07T01:53:09.799Z,13.6
2023-03-07T01:58:16.544Z,13.6
2023-03-07T02:03:23.322Z,13.6
2023-03-07T02:08:30.023Z,13.6
2023-03-07T02:13:36.731Z,13.6
2023-03-07T02:18:43.496Z,13.6
2023-03-07T02:23:50.201Z,13.6
2023-03-07T02:28:56.933Z,13.6
2023-03-07T02:34:04.078Z,13.6
2023-03-07T02:39:10.443Z,13.6
2023-03-07T02:44:17.135Z,13.6
2023-03-07T02:49:23.905Z,13.6
2023-03-07T02:59:38.549Z,13.6
2023-03-07T03:04:45.391Z,13.6
2023-03-07T03:09:52.025Z,13.6
2023-03-07T03:14:58.738Z,13.6
2023-03-07T03:20:05.599Z,13.6
2023-03-07T03:25:12.233Z,13.6
2023-03-07T03:30:18.958Z,13.6
2023-03-07T03:35:25.715Z,13.6
2023-03-07T03:40:32.410Z,13.6
2023-03-07T03:45:39.137Z,13.6
2023-03-07T03:50:45.917Z,13.6
2023-03-07T03:55:52.605Z,13.6
2023-03-07T04:00:59.352Z,13.6
2023-03-07T04:06:06.112Z,13.6
2023-03-07T04:11:12.807Z,13.6
2023-03-07T04:16:19.853Z,13.6
2023-03-07T04:21:26.286Z,13.6
2023-03-07T04:26:33.027Z,13.6
2023-03-07T04:31:39.797Z,13.6
2023-03-07T04:36:46.513Z,13.6
2023-03-07T04:41:53.215Z,13.6
2023-03-07T04:46:59.928Z,13.6
2023-03-07T04:52:06.685Z,13.6
2023-03-07T04:57:13.392Z,13.6
2023-03-07T05:02:20.140Z,13.6
2023-03-07T05:07:26.890Z,13.6
2023-03-07T05:12:33.604Z,13.4
2023-03-07T05:17:40.344Z,13.4
2023-03-07T05:22:47.114Z,13.4
2023-03-07T05:27:53.792Z,13.4
2023-03-07T05:33:00.548Z,13.4
2023-03-07T05:38:07.296Z,13.4
2023-03-07T05:43:14.002Z,13.2
2023-03-07T05:48:20.739Z,13.3
2023-03-07T05:53:27.517Z,13.3
2023-03-07T05:58:34.188Z,13.3
2023-03-07T06:03:40.973Z,13.3
2023-03-07T06:08:47.691Z,13.3
2023-03-07T06:13:54.398Z,13.3
2023-03-07T06:19:01.125Z,13.5
2023-03-07T06:24:07.893Z,13.5
2023-03-07T06:29:14.587Z,13.3
2023-03-07T06:34:21.360Z,13.1
2023-03-07T06:39:30.935Z,12.6
2023-03-07T06:44:34.848Z,12.4
2023-03-07T06:49:42.781Z,12.2
2023-03-07T06:54:49.535Z,12.4
2023-03-07T06:59:56.269Z,12.6
2023-03-07T07:05:02.986Z,12.8
2023-03-07T07:10:09.827Z,12.9
2023-03-07T07:15:16.438Z,12.9
2023-03-07T07:20:23.197Z,13
2023-03-07T07:25:29.937Z,13.1
2023-03-07T07:30:36.656Z,13.1
2023-03-07T07:35:43.406Z,13.3
2023-03-07T07:40:50.173Z,13.3
2023-03-07T07:45:58.119Z,13.5
2023-03-07T07:51:04.814Z,13.5
2023-03-07T07:56:12.780Z,13.5
2023-03-07T08:01:19.518Z,13.5
2023-03-07T08:06:26.233Z,13.5
2023-03-07T08:11:33.143Z,13.5
2023-03-07T08:16:39.720Z,13.5
2023-03-07T08:21:46.434Z,13.5
2023-03-07T08:26:53.201Z,13.5
2023-03-07T08:31:59.900Z,13.5
2023-03-07T08:37:06.649Z,13.7
2023-03-07T08:42:13.408Z,13.7
2023-03-07T08:47:20.116Z,13.5
2023-03-07T08:52:26.816Z,13.5
2023-03-07T08:57:33.580Z,13.5
2023-03-07T09:02:40.273Z,13.5
2023-03-07T09:07:47.004Z,13.5
2023-03-07T09:12:53.772Z,13.5
2023-03-07T09:18:00.480Z,13.5
2023-03-07T09:23:07.228Z,13.5
2023-03-07T09:28:14.057Z,13.5
2023-03-07T09:33:20.679Z,13.5
2023-03-07T09:38:27.408Z,13.5
2023-03-07T09:43:34.170Z,13.5
2023-03-07T09:48:40.872Z,13.5
2023-03-07T09:53:47.610Z,13.5
2023-03-07T09:58:54.456Z,13.5
2023-03-07T10:04:01.320Z,13.5
2023-03-07T10:09:07.825Z,13.5
2023-03-07T10:14:14.605Z,13.5
2023-03-07T10:19:21.305Z,13.5
2023-03-07T10:24:28.019Z,13.5
2023-03-07T10:29:34.802Z,13.5
2023-03-07T10:34:41.469Z,13.5
2023-03-07T10:39:48.197Z,13.5
2023-03-07T10:44:54.958Z,13.6
2023-03-07T10:50:01.660Z,13.6
2023-03-07T10:55:08.388Z,13.6
2023-03-07T11:00:15.170Z,13.6
2023-03-07T11:05:21.868Z,13.5
2023-03-07T11:10:28.599Z,13.5
2023-03-07T11:15:35.398Z,13.5
2023-03-07T11:20:42.037Z,13.5
2023-03-07T11:25:48.771Z,13.5
2023-03-07T11:30:55.552Z,13.5
2023-03-07T11:36:02.276Z,13.4
2023-03-07T11:41:09.029Z,13.5
2023-03-07T11:46:15.750Z,13.5
2023-03-07T11:51:22.432Z,13.5
2023-03-07T11:56:29.185Z,13.4
2023-03-07T12:01:36.064Z,13.4
2023-03-07T12:06:42.637Z,13.4
2023-03-07T12:11:49.397Z,13.4
2023-03-07T12:16:56.164Z,13.4
2023-03-07T12:22:02.866Z,13.4
2023-03-07T12:27:09.587Z,13.4
2023-03-07T12:32:16.600Z,13.4
2023-03-07T12:37:23.074Z,13.4
2023-03-07T12:42:29.799Z,13.4
2023-03-07T12:47:36.586Z,13.4
2023-03-07T12:52:43.269Z,13.4
2023-03-07T12:57:49.987Z,13.4
2023-03-07T13:02:56.750Z,13.4
2023-03-07T13:08:03.469Z,13.4
2023-03-07T13:13:10.189Z,13.4
2023-03-07T13:18:16.933Z,13.4
2023-03-07T13:23:23.707Z,13.4
2023-03-07T13:28:30.376Z,13.4
2023-03-07T13:33:37.247Z,13.4
2023-03-07T13:38:43.849Z,13.4
2023-03-07T13:43:50.575Z,13.4
2023-03-07T13:48:57.339Z,13.4
2023-03-07T13:54:04.048Z,13.4
2023-03-07T13:59:10.774Z,13.4
2023-03-07T14:04:26.637Z,13.4
2023-03-07T14:09:24.333Z,13.4
2023-03-07T14:14:30.960Z,13.4
2023-03-07T14:19:37.766Z,13.2
2023-03-07T14:24:44.456Z,13.2
2023-03-07T14:29:51.184Z,13.2
2023-03-07T14:34:57.981Z,13.4
2023-03-07T14:40:04.636Z,13.4
2023-03-07T14:45:11.387Z,13.4
2023-03-07T14:50:18.121Z,13.4
2023-03-07T14:55:24.844Z,13.4
2023-03-07T15:05:39.560Z,13.4
2023-03-07T15:10:46.258Z,13.4
2023-03-07T15:15:53.063Z,13.2
2023-03-07T15:20:59.797Z,13.2
2023-03-07T15:26:06.452Z,13.2
2023-03-07T15:31:13.220Z,13.2
2023-03-07T15:36:19.961Z,13.2
2023-03-07T15:41:26.635Z,13.2
2023-03-07T15:46:33.397Z,13.2
2023-03-07T15:51:40.181Z,13.4
2023-03-07T15:56:46.839Z,13.4
2023-03-07T16:01:53.632Z,13.4
2023-03-07T16:07:00.359Z,13.3
2023-03-07T16:12:07.031Z,13.3
2023-03-07T16:17:13.778Z,13.3
2023-03-07T16:22:20.629Z,13.3
2023-03-07T16:27:27.246Z,13.3
2023-03-07T16:32:34.064Z,13.3
2023-03-07T16:37:40.735Z,13.3
2023-03-07T16:42:47.448Z,13.3
2023-03-07T16:47:54.167Z,13.3
2023-03-07T16:53:00.922Z,13.3
2023-03-07T16:58:07.639Z,13.3
2023-03-07T17:03:14.343Z,13.3
2023-03-07T17:08:21.111Z,13.3
2023-03-07T17:18:34.588Z,13.3
2023-03-07T17:23:41.354Z,13.3
2023-03-07T17:28:48.028Z,13.3
2023-03-07T17:33:54.771Z,13.3
2023-03-07T17:39:01.526Z,13.1
2023-03-07T17:44:08.234Z,13.3
2023-03-07T17:49:14.965Z,13.3
2023-03-07T17:54:21.834Z,13.1
2023-03-07T17:59:28.442Z,13.3
2023-03-07T18:04:35.172Z,13.3
2023-03-07T18:09:41.926Z,13.3
2023-03-07T18:14:48.639Z,13.3
2023-03-07T18:19:55.386Z,13.1
2023-03-07T18:25:02.175Z,13.1
2023-03-07T18:30:08.833Z,13.3
2023-03-07T18:35:15.658Z,13.3
2023-03-07T18:40:22.375Z,13.3
2023-03-07T18:45:29.047Z,13.3
2023-03-07T18:50:35.743Z,13.3
2023-03-07T18:55:42.505Z,13.3
2023-03-07T19:00:49.251Z,13.3
2023-03-07T19:05:55.962Z,13.3
2023-03-07T19:11:02.719Z,13.3
2023-03-07T19:16:09.524Z,13.3
2023-03-07T19:21:16.138Z,13.3
2023-03-07T19:26:22.919Z,13.3
2023-03-07T19:31:29.720Z,13.3
2023-03-07T19:36:36.357Z,13.3
2023-03-07T19:41:44.699Z,13.3
2023-03-07T19:46:49.835Z,13.3
2023-03-07T19:51:56.546Z,13.3
2023-03-07T19:57:03.312Z,13.3
2023-03-07T20:02:10.001Z,13.3
2023-03-07T20:07:16.765Z,13.3
2023-03-07T20:12:23.613Z,13.3
2023-03-07T20:17:30.277Z,13.3
2023-03-07T20:22:36.960Z,13.3
2023-03-07T20:27:43.704Z,13.3
2023-03-07T20:32:50.440Z,13.3
2023-03-07T20:37:57.127Z,13.3
2023-03-07T20:43:03.912Z,13.3
2023-03-07T20:48:10.593Z,13.3
2023-03-07T20:53:17.358Z,13.3
2023-03-07T20:58:24.162Z,13.3
2023-03-07T21:03:30.815Z,13.3
2023-03-07T21:08:37.527Z,13.3
2023-03-07T21:13:44.293Z,13.3
2023-03-07T21:18:51.003Z,13.4
2023-03-07T21:23:57.751Z,13.4
2023-03-07T21:29:04.510Z,13.3
2023-03-07T21:34:11.213Z,13.4
2023-03-07T21:39:17.919Z,13.4
2023-03-07T21:44:24.689Z,13.4
2023-03-07T21:49:31.408Z,13.4
2023-03-07T21:54:38.132Z,13.4
2023-03-07T21:59:44.887Z,13.4
2023-03-07T22:04:51.593Z,13.4
2023-03-07T22:09:58.405Z,13.4
2023-03-07T22:15:05.087Z,13.4
2023-03-07T22:20:11.824Z,13.4
2023-03-07T22:25:18.510Z,13.4
2023-03-07T22:30:25.280Z,13.4
2023-03-07T22:35:32.039Z,13.4
2023-03-07T22:40:39.960Z,13.4
2023-03-07T22:45:46.757Z,13.4
2023-03-07T22:50:53.431Z,13.4
2023-03-07T22:56:00.242Z,13.4
2023-03-07T23:01:06.919Z,13.4
2023-03-07T23:06:13.616Z,13.4
2023-03-07T23:11:20.338Z,13.4
2023-03-07T23:16:27.109Z,13.4
2023-03-07T23:21:33.859Z,13.4
2023-03-07T23:26:40.580Z,13.4
2023-03-07T23:31:47.315Z,13.4
2023-03-07T23:36:54.009Z,13.4
2023-03-07T23:42:00.767Z,13.4
2023-03-07T23:47:07.553Z,13.4
2023-03-07T23:52:14.242Z,13.4
2023-03-07T23:57:20.977Z,13.4
